sensor_id;sensor_type;location;lat;lon;timestamp;P1;durP1;ratioP1;P2;durP2;ratioP2
69188;SDS011;56302;52.322;5.926;2023-05-07T00:00:20;9.73;;;6.65;;
69188;SDS011;56302;52.322;5.926;2023-05-07T00:02:46;27.07;;;5.93;;
69188;SDS011;56302;52.322;5.926;2023-05-07T00:05:12;25.50;;;6.45;;
69188;SDS011;56302;52.322;5.926;2023-05-07T00:07:37;30.73;;;6.87;;
69188;SDS011;56302;52.322;5.926;2023-05-07T00:10:03;12.10;;;5.37;;
69188;SDS011;56302;52.322;5.926;2023-05-07T00:12:31;6.72;;;5.35;;
69188;SDS011;56302;52.322;5.926;2023-05-07T00:14:58;8.43;;;5.60;;
69188;SDS011;56302;52.322;5.926;2023-05-07T00:17:24;8.80;;;5.15;;
69188;SDS011;56302;52.322;5.926;2023-05-07T00:19:49;7.53;;;5.97;;
69188;SDS011;56302;52.322;5.926;2023-05-07T00:22:15;7.90;;;5.03;;
69188;SDS011;56302;52.322;5.926;2023-05-07T00:24:41;10.90;;;7.70;;
69188;SDS011;56302;52.322;5.926;2023-05-07T00:27:06;9.33;;;7.00;;
69188;SDS011;56302;52.322;5.926;2023-05-07T00:29:32;8.83;;;5.87;;
69188;SDS011;56302;52.322;5.926;2023-05-07T00:31:57;9.90;;;6.63;;
69188;SDS011;56302;52.322;5.926;2023-05-07T00:34:23;9.97;;;6.70;;
69188;SDS011;56302;52.322;5.926;2023-05-07T00:36:48;10.07;;;6.10;;
69188;SDS011;56302;52.322;5.926;2023-05-07T00:39:14;13.68;;;6.95;;
69188;SDS011;56302;52.322;5.926;2023-05-07T00:41:39;14.43;;;8.70;;
69188;SDS011;56302;52.322;5.926;2023-05-07T00:44:05;9.97;;;7.23;;
69188;SDS011;56302;52.322;5.926;2023-05-07T00:46:31;11.35;;;7.82;;
69188;SDS011;56302;52.322;5.926;2023-05-07T00:48:58;9.65;;;6.97;;
69188;SDS011;56302;52.322;5.926;2023-05-07T00:51:25;13.68;;;7.60;;
69188;SDS011;56302;52.322;5.926;2023-05-07T00:53:52;11.50;;;8.05;;
69188;SDS011;56302;52.322;5.926;2023-05-07T00:56:18;9.80;;;6.73;;
69188;SDS011;56302;52.322;5.926;2023-05-07T00:58:46;11.13;;;7.32;;
69188;SDS011;56302;52.322;5.926;2023-05-07T01:01:11;11.38;;;7.47;;
69188;SDS011;56302;52.322;5.926;2023-05-07T01:03:37;11.10;;;7.53;;
69188;SDS011;56302;52.322;5.926;2023-05-07T01:06:03;12.63;;;7.40;;
69188;SDS011;56302;52.322;5.926;2023-05-07T01:08:30;13.15;;;9.00;;
69188;SDS011;56302;52.322;5.926;2023-05-07T01:10:57;9.82;;;7.53;;
69188;SDS011;56302;52.322;5.926;2023-05-07T01:13:24;12.82;;;8.10;;
69188;SDS011;56302;52.322;5.926;2023-05-07T01:15:50;11.65;;;8.40;;
69188;SDS011;56302;52.322;5.926;2023-05-07T01:18:16;11.30;;;7.70;;
69188;SDS011;56302;52.322;5.926;2023-05-07T01:20:41;9.70;;;7.73;;
69188;SDS011;56302;52.322;5.926;2023-05-07T01:23:07;10.05;;;7.80;;
69188;SDS011;56302;52.322;5.926;2023-05-07T01:25:35;10.35;;;8.10;;
69188;SDS011;56302;52.322;5.926;2023-05-07T01:28:01;12.30;;;7.70;;
69188;SDS011;56302;52.322;5.926;2023-05-07T01:30:27;9.57;;;7.00;;
69188;SDS011;56302;52.322;5.926;2023-05-07T01:32:57;10.65;;;7.32;;
69188;SDS011;56302;52.322;5.926;2023-05-07T01:35:30;10.20;;;8.25;;
69188;SDS011;56302;52.322;5.926;2023-05-07T01:38:00;11.80;;;7.88;;
69188;SDS011;56302;52.322;5.926;2023-05-07T01:40:29;10.30;;;8.38;;
69188;SDS011;56302;52.322;5.926;2023-05-07T01:42:55;9.48;;;7.22;;
69188;SDS011;56302;52.322;5.926;2023-05-07T01:45:21;9.43;;;7.05;;
69188;SDS011;56302;52.322;5.926;2023-05-07T01:47:47;9.20;;;8.00;;
69188;SDS011;56302;52.322;5.926;2023-05-07T01:50:14;11.17;;;8.00;;
69188;SDS011;56302;52.322;5.926;2023-05-07T01:52:42;58.95;;;8.80;;
69188;SDS011;56302;52.322;5.926;2023-05-07T01:55:07;101.60;;;10.55;;
69188;SDS011;56302;52.322;5.926;2023-05-07T01:57:33;10.37;;;7.77;;
69188;SDS011;56302;52.322;5.926;2023-05-07T01:59:59;8.60;;;6.30;;
69188;SDS011;56302;52.322;5.926;2023-05-07T02:02:24;12.87;;;7.97;;
69188;SDS011;56302;52.322;5.926;2023-05-07T02:04:50;9.70;;;6.13;;
69188;SDS011;56302;52.322;5.926;2023-05-07T02:07:15;9.80;;;7.68;;
69188;SDS011;56302;52.322;5.926;2023-05-07T02:09:41;36.07;;;7.93;;
69188;SDS011;56302;52.322;5.926;2023-05-07T02:12:06;17.33;;;8.03;;
69188;SDS011;56302;52.322;5.926;2023-05-07T02:14:32;28.83;;;8.37;;
69188;SDS011;56302;52.322;5.926;2023-05-07T02:16:57;15.93;;;8.30;;
69188;SDS011;56302;52.322;5.926;2023-05-07T02:19:23;18.97;;;8.20;;
69188;SDS011;56302;52.322;5.926;2023-05-07T02:21:48;18.93;;;8.10;;
69188;SDS011;56302;52.322;5.926;2023-05-07T02:24:14;9.50;;;7.47;;
69188;SDS011;56302;52.322;5.926;2023-05-07T02:26:40;20.42;;;8.73;;
69188;SDS011;56302;52.322;5.926;2023-05-07T02:29:06;21.53;;;8.27;;
69188;SDS011;56302;52.322;5.926;2023-05-07T02:31:32;12.75;;;9.30;;
69188;SDS011;56302;52.322;5.926;2023-05-07T02:33:58;16.67;;;12.32;;
69188;SDS011;56302;52.322;5.926;2023-05-07T02:36:24;32.38;;;11.60;;
69188;SDS011;56302;52.322;5.926;2023-05-07T02:38:51;20.35;;;10.02;;
69188;SDS011;56302;52.322;5.926;2023-05-07T02:41:17;11.75;;;9.77;;
69188;SDS011;56302;52.322;5.926;2023-05-07T02:43:42;15.67;;;12.40;;
69188;SDS011;56302;52.322;5.926;2023-05-07T02:46:08;16.43;;;12.50;;
69188;SDS011;56302;52.322;5.926;2023-05-07T02:48:34;17.77;;;13.02;;
69188;SDS011;56302;52.322;5.926;2023-05-07T02:51:00;19.88;;;14.32;;
69188;SDS011;56302;52.322;5.926;2023-05-07T02:53:26;19.85;;;14.93;;
69188;SDS011;56302;52.322;5.926;2023-05-07T02:55:52;19.13;;;15.40;;
69188;SDS011;56302;52.322;5.926;2023-05-07T02:58:18;22.77;;;16.90;;
69188;SDS011;56302;52.322;5.926;2023-05-07T03:00:44;24.13;;;17.52;;
69188;SDS011;56302;52.322;5.926;2023-05-07T03:03:10;22.37;;;16.97;;
69188;SDS011;56302;52.322;5.926;2023-05-07T03:05:36;25.92;;;18.85;;
69188;SDS011;56302;52.322;5.926;2023-05-07T03:08:01;26.60;;;17.70;;
69188;SDS011;56302;52.322;5.926;2023-05-07T03:10:27;24.38;;;17.55;;
69188;SDS011;56302;52.322;5.926;2023-05-07T03:12:53;27.30;;;18.47;;
69188;SDS011;56302;52.322;5.926;2023-05-07T03:15:18;26.75;;;19.38;;
69188;SDS011;56302;52.322;5.926;2023-05-07T03:17:44;29.55;;;20.15;;
69188;SDS011;56302;52.322;5.926;2023-05-07T03:20:09;25.57;;;18.83;;
69188;SDS011;56302;52.322;5.926;2023-05-07T03:22:35;28.90;;;20.27;;
69188;SDS011;56302;52.322;5.926;2023-05-07T03:25:01;26.07;;;19.33;;
69188;SDS011;56302;52.322;5.926;2023-05-07T03:27:26;29.35;;;19.55;;
69188;SDS011;56302;52.322;5.926;2023-05-07T03:29:52;26.87;;;19.17;;
69188;SDS011;56302;52.322;5.926;2023-05-07T03:32:17;27.50;;;19.90;;
69188;SDS011;56302;52.322;5.926;2023-05-07T03:34:43;28.58;;;20.40;;
69188;SDS011;56302;52.322;5.926;2023-05-07T03:37:08;28.87;;;20.57;;
69188;SDS011;56302;52.322;5.926;2023-05-07T03:39:34;27.13;;;19.17;;
69188;SDS011;56302;52.322;5.926;2023-05-07T03:42:00;27.97;;;18.97;;
69188;SDS011;56302;52.322;5.926;2023-05-07T03:44:26;27.43;;;19.33;;
69188;SDS011;56302;52.322;5.926;2023-05-07T03:46:51;26.35;;;18.65;;
69188;SDS011;56302;52.322;5.926;2023-05-07T03:49:17;28.30;;;21.13;;
69188;SDS011;56302;52.322;5.926;2023-05-07T03:51:42;29.13;;;20.67;;
69188;SDS011;56302;52.322;5.926;2023-05-07T03:54:08;28.35;;;18.70;;
69188;SDS011;56302;52.322;5.926;2023-05-07T03:56:33;26.13;;;20.10;;
69188;SDS011;56302;52.322;5.926;2023-05-07T03:59:00;25.48;;;19.08;;
69188;SDS011;56302;52.322;5.926;2023-05-07T04:01:26;30.42;;;20.00;;
69188;SDS011;56302;52.322;5.926;2023-05-07T04:03:52;28.37;;;20.40;;
69188;SDS011;56302;52.322;5.926;2023-05-07T04:06:17;26.13;;;19.73;;
69188;SDS011;56302;52.322;5.926;2023-05-07T04:08:43;26.77;;;19.88;;
69188;SDS011;56302;52.322;5.926;2023-05-07T04:11:08;36.30;;;21.10;;
69188;SDS011;56302;52.322;5.926;2023-05-07T04:13:34;31.63;;;22.23;;
69188;SDS011;56302;52.322;5.926;2023-05-07T04:16:00;27.77;;;20.33;;
69188;SDS011;56302;52.322;5.926;2023-05-07T04:18:27;30.17;;;20.50;;
69188;SDS011;56302;52.322;5.926;2023-05-07T04:20:53;31.40;;;21.40;;
69188;SDS011;56302;52.322;5.926;2023-05-07T04:23:18;29.35;;;20.92;;
69188;SDS011;56302;52.322;5.926;2023-05-07T04:25:44;30.60;;;20.77;;
69188;SDS011;56302;52.322;5.926;2023-05-07T04:28:10;30.10;;;20.88;;
69188;SDS011;56302;52.322;5.926;2023-05-07T04:30:36;31.63;;;21.10;;
69188;SDS011;56302;52.322;5.926;2023-05-07T04:33:02;32.07;;;21.33;;
69188;SDS011;56302;52.322;5.926;2023-05-07T04:35:27;32.80;;;21.95;;
69188;SDS011;56302;52.322;5.926;2023-05-07T04:37:53;27.97;;;19.43;;
69188;SDS011;56302;52.322;5.926;2023-05-07T04:40:18;31.33;;;21.27;;
69188;SDS011;56302;52.322;5.926;2023-05-07T04:42:44;30.75;;;21.20;;
69188;SDS011;56302;52.322;5.926;2023-05-07T04:45:10;33.80;;;20.70;;
69188;SDS011;56302;52.322;5.926;2023-05-07T04:47:37;36.37;;;20.10;;
69188;SDS011;56302;52.322;5.926;2023-05-07T04:50:03;31.23;;;19.83;;
69188;SDS011;56302;52.322;5.926;2023-05-07T04:52:29;30.20;;;20.50;;
69188;SDS011;56302;52.322;5.926;2023-05-07T04:54:56;33.58;;;20.20;;
69188;SDS011;56302;52.322;5.926;2023-05-07T04:57:23;30.98;;;19.80;;
69188;SDS011;56302;52.322;5.926;2023-05-07T04:59:49;30.57;;;19.37;;
69188;SDS011;56302;52.322;5.926;2023-05-07T05:02:15;30.87;;;18.80;;
69188;SDS011;56302;52.322;5.926;2023-05-07T05:04:40;28.90;;;19.33;;
69188;SDS011;56302;52.322;5.926;2023-05-07T05:07:06;28.80;;;19.08;;
69188;SDS011;56302;52.322;5.926;2023-05-07T05:09:32;28.48;;;18.85;;
69188;SDS011;56302;52.322;5.926;2023-05-07T05:11:57;28.27;;;17.17;;
69188;SDS011;56302;52.322;5.926;2023-05-07T05:14:23;28.85;;;17.33;;
69188;SDS011;56302;52.322;5.926;2023-05-07T05:16:49;29.07;;;18.67;;
69188;SDS011;56302;52.322;5.926;2023-05-07T05:19:14;27.52;;;17.48;;
69188;SDS011;56302;52.322;5.926;2023-05-07T05:21:40;30.83;;;18.57;;
69188;SDS011;56302;52.322;5.926;2023-05-07T05:24:06;28.50;;;17.67;;
69188;SDS011;56302;52.322;5.926;2023-05-07T05:26:31;28.33;;;17.88;;
69188;SDS011;56302;52.322;5.926;2023-05-07T05:28:57;25.57;;;17.17;;
69188;SDS011;56302;52.322;5.926;2023-05-07T05:31:22;29.80;;;18.60;;
69188;SDS011;56302;52.322;5.926;2023-05-07T05:33:48;27.92;;;16.60;;
69188;SDS011;56302;52.322;5.926;2023-05-07T05:36:13;26.17;;;16.87;;
69188;SDS011;56302;52.322;5.926;2023-05-07T05:38:39;31.52;;;17.77;;
69188;SDS011;56302;52.322;5.926;2023-05-07T05:41:05;30.45;;;17.65;;
69188;SDS011;56302;52.322;5.926;2023-05-07T05:43:30;28.48;;;18.05;;
69188;SDS011;56302;52.322;5.926;2023-05-07T05:45:56;28.50;;;16.88;;
69188;SDS011;56302;52.322;5.926;2023-05-07T05:48:22;29.88;;;18.52;;
69188;SDS011;56302;52.322;5.926;2023-05-07T05:50:48;30.67;;;18.33;;
69188;SDS011;56302;52.322;5.926;2023-05-07T05:53:14;32.17;;;19.42;;
69188;SDS011;56302;52.322;5.926;2023-05-07T05:55:40;30.88;;;18.60;;
69188;SDS011;56302;52.322;5.926;2023-05-07T05:58:06;30.93;;;18.00;;
69188;SDS011;56302;52.322;5.926;2023-05-07T06:00:32;35.15;;;17.83;;
69188;SDS011;56302;52.322;5.926;2023-05-07T06:02:58;34.10;;;20.55;;
69188;SDS011;56302;52.322;5.926;2023-05-07T06:05:24;34.83;;;19.60;;
69188;SDS011;56302;52.322;5.926;2023-05-07T06:07:49;30.77;;;18.90;;
69188;SDS011;56302;52.322;5.926;2023-05-07T06:10:15;32.63;;;20.73;;
69188;SDS011;56302;52.322;5.926;2023-05-07T06:12:40;32.40;;;19.77;;
69188;SDS011;56302;52.322;5.926;2023-05-07T06:15:06;31.63;;;19.97;;
69188;SDS011;56302;52.322;5.926;2023-05-07T06:17:31;30.90;;;19.42;;
69188;SDS011;56302;52.322;5.926;2023-05-07T06:19:57;36.57;;;21.33;;
69188;SDS011;56302;52.322;5.926;2023-05-07T06:22:22;31.20;;;20.13;;
69188;SDS011;56302;52.322;5.926;2023-05-07T06:24:48;34.83;;;19.50;;
69188;SDS011;56302;52.322;5.926;2023-05-07T06:27:13;34.20;;;20.63;;
69188;SDS011;56302;52.322;5.926;2023-05-07T06:29:39;29.07;;;18.57;;
69188;SDS011;56302;52.322;5.926;2023-05-07T06:32:08;31.83;;;19.13;;
69188;SDS011;56302;52.322;5.926;2023-05-07T06:34:35;30.80;;;19.58;;
69188;SDS011;56302;52.322;5.926;2023-05-07T06:37:01;32.10;;;19.65;;
69188;SDS011;56302;52.322;5.926;2023-05-07T06:39:27;35.53;;;20.58;;
69188;SDS011;56302;52.322;5.926;2023-05-07T06:41:52;31.20;;;19.87;;
69188;SDS011;56302;52.322;5.926;2023-05-07T06:44:18;35.83;;;19.90;;
69188;SDS011;56302;52.322;5.926;2023-05-07T06:46:44;34.30;;;21.30;;
69188;SDS011;56302;52.322;5.926;2023-05-07T06:49:10;36.63;;;21.10;;
69188;SDS011;56302;52.322;5.926;2023-05-07T06:51:35;35.40;;;19.65;;
69188;SDS011;56302;52.322;5.926;2023-05-07T06:54:01;28.97;;;18.50;;
69188;SDS011;56302;52.322;5.926;2023-05-07T06:56:27;29.20;;;19.07;;
69188;SDS011;56302;52.322;5.926;2023-05-07T06:58:52;33.55;;;20.27;;
69188;SDS011;56302;52.322;5.926;2023-05-07T07:01:18;32.80;;;19.67;;
69188;SDS011;56302;52.322;5.926;2023-05-07T07:03:43;36.60;;;19.90;;
69188;SDS011;56302;52.322;5.926;2023-05-07T07:06:09;30.45;;;19.98;;
69188;SDS011;56302;52.322;5.926;2023-05-07T07:08:34;31.57;;;19.77;;
69188;SDS011;56302;52.322;5.926;2023-05-07T07:11:00;33.27;;;19.50;;
69188;SDS011;56302;52.322;5.926;2023-05-07T07:13:25;32.72;;;20.63;;
69188;SDS011;56302;52.322;5.926;2023-05-07T07:15:51;30.23;;;20.07;;
69188;SDS011;56302;52.322;5.926;2023-05-07T07:18:18;33.60;;;19.92;;
69188;SDS011;56302;52.322;5.926;2023-05-07T07:20:43;32.37;;;20.43;;
69188;SDS011;56302;52.322;5.926;2023-05-07T07:23:09;29.08;;;19.38;;
69188;SDS011;56302;52.322;5.926;2023-05-07T07:25:35;31.80;;;19.57;;
69188;SDS011;56302;52.322;5.926;2023-05-07T07:28:00;30.85;;;19.15;;
69188;SDS011;56302;52.322;5.926;2023-05-07T07:30:26;32.83;;;21.03;;
69188;SDS011;56302;52.322;5.926;2023-05-07T07:32:52;32.17;;;19.97;;
69188;SDS011;56302;52.322;5.926;2023-05-07T07:35:17;32.40;;;20.60;;
69188;SDS011;56302;52.322;5.926;2023-05-07T07:37:43;28.97;;;19.67;;
69188;SDS011;56302;52.322;5.926;2023-05-07T07:40:08;32.80;;;19.90;;
69188;SDS011;56302;52.322;5.926;2023-05-07T07:42:34;33.88;;;20.65;;
69188;SDS011;56302;52.322;5.926;2023-05-07T07:45:00;32.45;;;19.40;;
69188;SDS011;56302;52.322;5.926;2023-05-07T07:47:26;30.47;;;18.87;;
69188;SDS011;56302;52.322;5.926;2023-05-07T07:49:51;28.73;;;18.37;;
69188;SDS011;56302;52.322;5.926;2023-05-07T07:52:17;30.20;;;18.95;;
69188;SDS011;56302;52.322;5.926;2023-05-07T07:54:44;32.97;;;20.20;;
69188;SDS011;56302;52.322;5.926;2023-05-07T07:57:09;30.60;;;18.45;;
69188;SDS011;56302;52.322;5.926;2023-05-07T07:59:35;30.63;;;19.33;;
69188;SDS011;56302;52.322;5.926;2023-05-07T08:02:00;31.48;;;18.67;;
69188;SDS011;56302;52.322;5.926;2023-05-07T08:04:26;29.70;;;20.33;;
69188;SDS011;56302;52.322;5.926;2023-05-07T08:06:51;33.60;;;20.70;;
69188;SDS011;56302;52.322;5.926;2023-05-07T08:09:19;30.48;;;19.42;;
69188;SDS011;56302;52.322;5.926;2023-05-07T08:11:44;32.63;;;21.70;;
69188;SDS011;56302;52.322;5.926;2023-05-07T08:14:10;29.00;;;19.45;;
69188;SDS011;56302;52.322;5.926;2023-05-07T08:16:36;28.17;;;17.73;;
69188;SDS011;56302;52.322;5.926;2023-05-07T08:19:02;28.83;;;17.90;;
69188;SDS011;56302;52.322;5.926;2023-05-07T08:21:28;26.05;;;16.85;;
69188;SDS011;56302;52.322;5.926;2023-05-07T08:23:53;28.10;;;17.23;;
69188;SDS011;56302;52.322;5.926;2023-05-07T08:26:19;25.73;;;17.25;;
69188;SDS011;56302;52.322;5.926;2023-05-07T08:28:45;26.27;;;17.67;;
69188;SDS011;56302;52.322;5.926;2023-05-07T08:31:10;26.40;;;18.15;;
69188;SDS011;56302;52.322;5.926;2023-05-07T08:33:36;25.83;;;17.50;;
69188;SDS011;56302;52.322;5.926;2023-05-07T08:36:03;26.88;;;16.85;;
69188;SDS011;56302;52.322;5.926;2023-05-07T08:38:29;23.05;;;16.77;;
69188;SDS011;56302;52.322;5.926;2023-05-07T08:40:55;29.07;;;16.47;;
69188;SDS011;56302;52.322;5.926;2023-05-07T08:43:21;22.98;;;16.58;;
69188;SDS011;56302;52.322;5.926;2023-05-07T08:45:49;24.10;;;16.17;;
69188;SDS011;56302;52.322;5.926;2023-05-07T08:48:18;24.83;;;17.17;;
69188;SDS011;56302;52.322;5.926;2023-05-07T08:50:46;26.97;;;16.67;;
69188;SDS011;56302;52.322;5.926;2023-05-07T08:53:12;25.88;;;16.48;;
69188;SDS011;56302;52.322;5.926;2023-05-07T08:55:38;25.30;;;16.58;;
69188;SDS011;56302;52.322;5.926;2023-05-07T08:58:04;23.33;;;16.43;;
69188;SDS011;56302;52.322;5.926;2023-05-07T09:00:30;21.75;;;16.10;;
69188;SDS011;56302;52.322;5.926;2023-05-07T09:02:55;25.57;;;17.03;;
69188;SDS011;56302;52.322;5.926;2023-05-07T09:05:21;26.87;;;17.03;;
69188;SDS011;56302;52.322;5.926;2023-05-07T09:07:46;26.95;;;16.50;;
69188;SDS011;56302;52.322;5.926;2023-05-07T09:10:12;23.50;;;15.73;;
69188;SDS011;56302;52.322;5.926;2023-05-07T09:12:39;22.95;;;15.90;;
69188;SDS011;56302;52.322;5.926;2023-05-07T09:15:06;21.55;;;16.10;;
69188;SDS011;56302;52.322;5.926;2023-05-07T09:17:32;27.00;;;17.20;;
69188;SDS011;56302;52.322;5.926;2023-05-07T09:20:04;23.70;;;16.35;;
69188;SDS011;56302;52.322;5.926;2023-05-07T09:22:33;26.00;;;16.83;;
69188;SDS011;56302;52.322;5.926;2023-05-07T09:25:01;22.40;;;15.90;;
69188;SDS011;56302;52.322;5.926;2023-05-07T09:27:27;25.27;;;16.65;;
69188;SDS011;56302;52.322;5.926;2023-05-07T09:29:52;23.77;;;16.40;;
69188;SDS011;56302;52.322;5.926;2023-05-07T09:32:18;23.23;;;15.68;;
69188;SDS011;56302;52.322;5.926;2023-05-07T09:34:44;23.53;;;16.63;;
69188;SDS011;56302;52.322;5.926;2023-05-07T09:37:10;24.98;;;15.93;;
69188;SDS011;56302;52.322;5.926;2023-05-07T09:39:44;22.55;;;16.85;;
69188;SDS011;56302;52.322;5.926;2023-05-07T09:42:12;24.42;;;16.88;;
69188;SDS011;56302;52.322;5.926;2023-05-07T09:44:40;24.55;;;17.27;;
69188;SDS011;56302;52.322;5.926;2023-05-07T09:47:06;25.50;;;16.90;;
69188;SDS011;56302;52.322;5.926;2023-05-07T09:49:36;25.17;;;15.80;;
69188;SDS011;56302;52.322;5.926;2023-05-07T09:52:04;22.60;;;15.80;;
69188;SDS011;56302;52.322;5.926;2023-05-07T09:54:31;24.00;;;16.65;;
69188;SDS011;56302;52.322;5.926;2023-05-07T09:56:59;22.70;;;14.70;;
69188;SDS011;56302;52.322;5.926;2023-05-07T09:59:27;24.15;;;15.55;;
69188;SDS011;56302;52.322;5.926;2023-05-07T10:01:55;26.15;;;16.92;;
69188;SDS011;56302;52.322;5.926;2023-05-07T10:04:23;24.40;;;14.85;;
69188;SDS011;56302;52.322;5.926;2023-05-07T10:06:50;19.55;;;15.02;;
69188;SDS011;56302;52.322;5.926;2023-05-07T10:09:16;22.15;;;15.43;;
69188;SDS011;56302;52.322;5.926;2023-05-07T10:11:42;20.53;;;14.53;;
69188;SDS011;56302;52.322;5.926;2023-05-07T10:14:08;23.10;;;15.67;;
69188;SDS011;56302;52.322;5.926;2023-05-07T10:16:35;24.98;;;16.77;;
69188;SDS011;56302;52.322;5.926;2023-05-07T10:19:02;22.63;;;16.60;;
69188;SDS011;56302;52.322;5.926;2023-05-07T10:21:29;23.05;;;16.52;;
69188;SDS011;56302;52.322;5.926;2023-05-07T10:24:03;24.23;;;16.75;;
69188;SDS011;56302;52.322;5.926;2023-05-07T10:26:45;28.67;;;17.47;;
69188;SDS011;56302;52.322;5.926;2023-05-07T10:29:17;25.83;;;17.60;;
69188;SDS011;56302;52.322;5.926;2023-05-07T10:34:23;27.88;;;17.55;;
69188;SDS011;56302;52.322;5.926;2023-05-07T10:36:52;24.73;;;17.73;;
69188;SDS011;56302;52.322;5.926;2023-05-07T10:39:20;25.67;;;17.15;;
69188;SDS011;56302;52.322;5.926;2023-05-07T10:41:46;26.70;;;17.25;;
69188;SDS011;56302;52.322;5.926;2023-05-07T10:44:24;28.13;;;17.33;;
69188;SDS011;56302;52.322;5.926;2023-05-07T10:47:15;30.02;;;17.58;;
69188;SDS011;56302;52.322;5.926;2023-05-07T10:52:20;25.03;;;16.00;;
69188;SDS011;56302;52.322;5.926;2023-05-07T10:54:48;23.85;;;16.45;;
69188;SDS011;56302;52.322;5.926;2023-05-07T10:57:39;23.23;;;16.50;;
69188;SDS011;56302;52.322;5.926;2023-05-07T11:03:04;27.58;;;16.60;;
69188;SDS011;56302;52.322;5.926;2023-05-07T11:05:32;27.57;;;16.83;;
69188;SDS011;56302;52.322;5.926;2023-05-07T11:07:59;25.95;;;17.60;;
69188;SDS011;56302;52.322;5.926;2023-05-07T11:13:13;25.33;;;16.50;;
69188;SDS011;56302;52.322;5.926;2023-05-07T11:15:40;26.83;;;17.55;;
69188;SDS011;56302;52.322;5.926;2023-05-07T11:18:08;24.58;;;16.63;;
69188;SDS011;56302;52.322;5.926;2023-05-07T11:26:03;22.50;;;14.65;;
69188;SDS011;56302;52.322;5.926;2023-05-07T11:28:35;22.27;;;15.80;;
69188;SDS011;56302;52.322;5.926;2023-05-07T11:31:02;24.03;;;15.77;;
69188;SDS011;56302;52.322;5.926;2023-05-07T11:33:28;20.73;;;14.35;;
69188;SDS011;56302;52.322;5.926;2023-05-07T11:35:55;21.48;;;14.88;;
69188;SDS011;56302;52.322;5.926;2023-05-07T11:38:21;22.02;;;15.35;;
69188;SDS011;56302;52.322;5.926;2023-05-07T11:40:50;21.40;;;13.63;;
69188;SDS011;56302;52.322;5.926;2023-05-07T11:43:16;23.40;;;14.57;;
69188;SDS011;56302;52.322;5.926;2023-05-07T11:45:42;21.45;;;15.40;;
69188;SDS011;56302;52.322;5.926;2023-05-07T11:48:07;24.87;;;16.40;;
69188;SDS011;56302;52.322;5.926;2023-05-07T11:50:33;25.07;;;15.03;;
69188;SDS011;56302;52.322;5.926;2023-05-07T11:52:58;24.77;;;15.65;;
69188;SDS011;56302;52.322;5.926;2023-05-07T11:55:24;24.87;;;15.87;;
69188;SDS011;56302;52.322;5.926;2023-05-07T11:57:50;23.48;;;15.73;;
69188;SDS011;56302;52.322;5.926;2023-05-07T12:00:16;27.57;;;17.13;;
69188;SDS011;56302;52.322;5.926;2023-05-07T12:02:43;25.25;;;16.98;;
69188;SDS011;56302;52.322;5.926;2023-05-07T12:05:10;24.38;;;17.02;;
69188;SDS011;56302;52.322;5.926;2023-05-07T12:07:35;25.20;;;16.93;;
69188;SDS011;56302;52.322;5.926;2023-05-07T12:10:05;28.00;;;18.65;;
69188;SDS011;56302;52.322;5.926;2023-05-07T12:12:32;23.50;;;16.07;;
69188;SDS011;56302;52.322;5.926;2023-05-07T12:15:03;24.77;;;16.67;;
69188;SDS011;56302;52.322;5.926;2023-05-07T12:17:29;25.80;;;16.80;;
69188;SDS011;56302;52.322;5.926;2023-05-07T12:19:55;24.23;;;17.53;;
69188;SDS011;56302;52.322;5.926;2023-05-07T12:22:20;26.83;;;18.02;;
69188;SDS011;56302;52.322;5.926;2023-05-07T12:24:48;26.93;;;16.20;;
69188;SDS011;56302;52.322;5.926;2023-05-07T12:27:15;25.63;;;16.80;;
69188;SDS011;56302;52.322;5.926;2023-05-07T12:29:47;24.85;;;15.63;;
69188;SDS011;56302;52.322;5.926;2023-05-07T12:32:17;25.83;;;16.35;;
69188;SDS011;56302;52.322;5.926;2023-05-07T12:34:44;26.33;;;16.35;;
69188;SDS011;56302;52.322;5.926;2023-05-07T12:37:10;24.07;;;16.63;;
69188;SDS011;56302;52.322;5.926;2023-05-07T12:39:37;25.17;;;16.70;;
69188;SDS011;56302;52.322;5.926;2023-05-07T12:42:03;25.42;;;16.48;;
69188;SDS011;56302;52.322;5.926;2023-05-07T12:44:30;26.80;;;17.53;;
69188;SDS011;56302;52.322;5.926;2023-05-07T12:46:57;25.60;;;17.92;;
69188;SDS011;56302;52.322;5.926;2023-05-07T12:49:26;26.65;;;16.35;;
69188;SDS011;56302;52.322;5.926;2023-05-07T12:51:51;26.53;;;16.87;;
69188;SDS011;56302;52.322;5.926;2023-05-07T12:54:31;25.60;;;17.45;;
69188;SDS011;56302;52.322;5.926;2023-05-07T12:57:07;30.17;;;18.90;;
69188;SDS011;56302;52.322;5.926;2023-05-07T13:02:00;27.52;;;18.40;;
69188;SDS011;56302;52.322;5.926;2023-05-07T13:04:25;26.00;;;17.93;;
69188;SDS011;56302;52.322;5.926;2023-05-07T13:06:51;25.37;;;16.47;;
69188;SDS011;56302;52.322;5.926;2023-05-07T13:09:16;27.92;;;16.75;;
69188;SDS011;56302;52.322;5.926;2023-05-07T13:11:42;23.40;;;15.43;;
69188;SDS011;56302;52.322;5.926;2023-05-07T13:14:07;22.87;;;15.50;;
69188;SDS011;56302;52.322;5.926;2023-05-07T13:16:33;22.50;;;15.83;;
69188;SDS011;56302;52.322;5.926;2023-05-07T13:18:58;22.20;;;15.17;;
69188;SDS011;56302;52.322;5.926;2023-05-07T13:21:24;21.80;;;15.37;;
69188;SDS011;56302;52.322;5.926;2023-05-07T13:23:50;21.65;;;14.40;;
69188;SDS011;56302;52.322;5.926;2023-05-07T13:26:15;22.47;;;15.33;;
69188;SDS011;56302;52.322;5.926;2023-05-07T13:28:41;24.17;;;15.73;;
69188;SDS011;56302;52.322;5.926;2023-05-07T13:31:06;23.67;;;15.17;;
69188;SDS011;56302;52.322;5.926;2023-05-07T13:33:32;20.70;;;13.83;;
69188;SDS011;56302;52.322;5.926;2023-05-07T13:35:57;19.33;;;14.07;;
69188;SDS011;56302;52.322;5.926;2023-05-07T13:38:25;22.53;;;15.20;;
69188;SDS011;56302;52.322;5.926;2023-05-07T13:40:51;22.10;;;14.43;;
69188;SDS011;56302;52.322;5.926;2023-05-07T13:43:16;23.70;;;14.37;;
69188;SDS011;56302;52.322;5.926;2023-05-07T13:45:43;22.05;;;14.45;;
69188;SDS011;56302;52.322;5.926;2023-05-07T13:48:09;25.47;;;15.87;;
69188;SDS011;56302;52.322;5.926;2023-05-07T13:50:35;21.35;;;15.13;;
69188;SDS011;56302;52.322;5.926;2023-05-07T13:53:00;23.77;;;16.23;;
69188;SDS011;56302;52.322;5.926;2023-05-07T13:55:28;22.02;;;15.02;;
69188;SDS011;56302;52.322;5.926;2023-05-07T13:57:58;19.50;;;13.63;;
69188;SDS011;56302;52.322;5.926;2023-05-07T14:00:25;19.48;;;13.45;;
69188;SDS011;56302;52.322;5.926;2023-05-07T14:02:52;22.40;;;14.60;;
69188;SDS011;56302;52.322;5.926;2023-05-07T14:05:17;22.00;;;16.20;;
69188;SDS011;56302;52.322;5.926;2023-05-07T14:07:43;22.93;;;14.83;;
69188;SDS011;56302;52.322;5.926;2023-05-07T14:10:09;21.67;;;15.40;;
69188;SDS011;56302;52.322;5.926;2023-05-07T14:12:36;24.43;;;15.17;;
69188;SDS011;56302;52.322;5.926;2023-05-07T14:15:01;24.15;;;16.10;;
69188;SDS011;56302;52.322;5.926;2023-05-07T14:17:27;24.00;;;16.48;;
69188;SDS011;56302;52.322;5.926;2023-05-07T14:19:53;25.37;;;16.30;;
69188;SDS011;56302;52.322;5.926;2023-05-07T14:22:19;25.90;;;15.93;;
69188;SDS011;56302;52.322;5.926;2023-05-07T14:24:46;23.35;;;15.80;;
69188;SDS011;56302;52.322;5.926;2023-05-07T14:27:12;22.37;;;16.10;;
69188;SDS011;56302;52.322;5.926;2023-05-07T14:29:38;24.20;;;15.90;;
69188;SDS011;56302;52.322;5.926;2023-05-07T14:32:03;24.35;;;15.52;;
69188;SDS011;56302;52.322;5.926;2023-05-07T14:34:29;24.20;;;15.90;;
69188;SDS011;56302;52.322;5.926;2023-05-07T14:36:55;23.77;;;15.57;;